Terminal Aerodrome Forecast
Issued by NWS

Home | Current Version | Previous Version | Text Only | Print | Product List | Glossary On
Versions: 1 2 3 4 5 6 7 8 9 10 11 12 13 14 15 16 17 18
000
FTUS41 KALY 041133
TAFPSF
TAF
KPSF 041133Z 0412/0512 23005KT P6SM SCT050 SCT090
     FM041400 23006KT P6SM SCT050 BKN100
     FM041800 28009KT P6SM VCSH BKN050 BKN100
     FM042300 28005KT P6SM SCT050 BKN100
     FM050700 VRB03KT 3SM BR BKN050 BKN100=

USA.gov is the U.S. government's official web portal to all federal, state and local government web resources and services.